Latest Weather Observations for Fowlers Gap

IDN60801

Issued at 5:42 am EST Friday 26 April 2019 (issued every 10 minutes, with the page automatically refreshed every 10 minutes)

About weather observations | Map of weather stations | Latest weather observations for NSW | Other Formats
Station Details ID: 046128 Name: FOWLERS GAP AWS Lat: -31.09 Lon: 141.70 Height: 181.0 m
Data from the previous 72 hours. | See also: Recent months at Fowlers Gap
Date/Time
EST
Temp
°C
App
Temp
°C
Dew
Point
°C
Rel
Hum
%
Delta-T
°C
Wind Press
QNH
hPa
Press
MSL
hPa
Rain since
9am
mm
Dir  Spd
km/h
Gust
km/h
Spd
kts
Gust
kts
26/05:30am 14.6 10.5 6.4 58 4.0 S 17 24 9 13 1021.3 1020.8 0.0
26/05:00am 14.5 11.3 6.8 60 3.8 S 13 17 7 9 1021.1 1020.6 0.0
26/04:30am 14.8 11.7 7.4 61 3.7 S 13 15 7 8 1020.9 1020.4 0.0
26/04:00am 14.9 12.3 7.7 62 3.6 S 11 13 6 7 1020.7 1020.2 0.0
26/03:30am 15.2 13.5 8.2 63 3.6 SSW 7 11 4 6 1020.7 1020.2 0.0
26/03:00am 15.3 14.2 8.5 64 3.5 S 4 9 2 5 1020.9 1020.4 0.0
26/02:30am 14.6 14.2 8.3 66 3.2 CALM 0 0 0 0 1020.9 1020.4 0.0
26/02:00am 15.2 13.8 8.7 65 3.3 SSW 6 7 3 4 1020.9 1020.4 0.0
26/01:30am 15.3 13.8 8.5 64 3.5 SW 6 7 3 4 1021.0 1020.5 0.0
26/01:00am 16.0 14.7 9.2 64 3.5 SSW 6 7 3 4 1021.1 1020.6 0.0
26/12:30am 16.3 14.8 9.3 63 3.7 SSE 7 9 4 5 1021.2 1020.7 0.0
26/12:00am 16.9 15.5 9.6 62 3.8 SE 7 9 4 5 1021.2 1020.7 0.0
 
Date/Time
EST
Temp
°C
App
Temp
°C
Dew
Point
°C
Rel
Hum
%
Delta-T
°C
Wind Press
QNH
hPa
Press
MSL
hPa
Rain since
9am
mm
Dir  Spd
km/h
Gust
km/h
Spd
kts
Gust
kts
25/11:30pm 16.9 15.6 9.8 63 3.8 SSE 7 9 4 5 1021.3 1020.8 0.0
25/11:00pm 17.5 16.2 10.1 62 3.9 SSE 7 9 4 5 1021.4 1020.9 0.0
25/10:30pm 17.8 15.8 10.2 61 4.1 SSW 11 17 6 9 1021.4 1020.9 0.0
25/10:00pm 17.9 18.0 10.0 60 4.2 CALM 0 6 0 3 1021.3 1020.8 0.0
25/09:30pm 18.4 17.2 10.3 59 4.4 S 7 9 4 5 1021.3 1020.8 0.0
25/09:00pm 18.9 17.7 10.2 57 4.7 S 7 9 4 5 1021.3 1020.8 0.0
25/08:30pm 19.6 18.0 10.3 55 5.1 S 9 11 5 6 1021.1 1020.6 0.0
25/08:00pm 20.4 18.5 10.5 53 5.4 SSE 11 13 6 7 1021.0 1020.5 0.0
25/07:30pm 21.1 19.6 10.6 51 5.8 SE 9 13 5 7 1020.7 1020.2 0.0
25/07:00pm 21.8 19.9 10.6 49 6.2 SSE 11 13 6 7 1020.4 1019.9 0.0
25/06:30pm 22.4 20.1 10.5 47 6.6 SSE 13 19 7 10 1020.0 1019.5 0.0
25/06:00pm 22.9 19.8 10.3 45 6.9 SSE 17 20 9 11 1019.7 1019.2 0.0
25/05:30pm 23.7 20.7 10.7 44 7.3 SE 17 22 9 12 1019.6 1019.1 0.0
25/05:00pm 24.1 20.7 10.4 42 7.6 SSE 19 26 10 14 1019.6 1019.1 0.0
25/04:30pm 24.6 21.3 10.8 42 7.8 SE 19 24 10 13 1019.5 1019.0 0.0
25/04:00pm 24.6 21.1 10.8 42 7.7 SE 20 28 11 15 1019.6 1019.1 0.0
25/03:30pm 24.5 21.0 10.8 42 7.7 SE 20 30 11 16 1019.6 1019.1 0.0
25/03:00pm 24.5 20.2 10.8 42 7.7 SSE 24 35 13 19 1019.8 1019.3 0.0
25/02:30pm 23.4 19.8 10.5 44 7.2 SSE 20 28 11 15 1020.1 1019.6 0.0
25/02:00pm 23.1 19.3 9.8 43 7.3 SE 20 28 11 15 1020.4 1019.9 0.0
25/01:30pm 22.6 18.5 10.1 45 6.9 SE 22 32 12 17 1021.0 1020.5 0.0
25/01:00pm 22.6 18.3 9.4 43 7.1 SE 22 32 12 17 1021.5 1021.0 0.0
25/12:30pm 21.5 16.9 9.7 47 6.4 SE 24 33 13 18 1022.1 1021.6 0.0
25/12:00pm 21.8 17.2 9.7 46 6.6 SE 24 33 13 18 1022.5 1022.0 0.0
25/11:30am 21.5 17.2 9.4 46 6.5 SSE 22 32 12 17 1022.9 1022.4 0.0
25/11:00am 19.6 15.3 9.2 51 5.5 SSE 22 30 12 16 1023.2 1022.7 0.0
25/10:30am 18.5 14.6 9.3 55 4.9 SSE 20 28 11 15 1023.4 1022.9 0.0
25/10:00am 17.9 14.4 8.7 55 4.8 SSE 17 28 9 15 1023.4 1022.9 0.0
25/09:30am 17.8 13.8 8.9 56 4.7 SSE 20 30 11 16 1023.5 1023.0 0.0
25/09:00am 17.7 13.1 8.3 54 4.8 SSE 22 30 12 16 1023.4 1022.9 0.0
25/08:30am 17.4 12.5 8.3 55 4.7 SSE 24 32 13 17 1023.3 1022.8 0.0
25/08:00am 17.1 12.1 8.0 55 4.6 SSE 24 35 13 19 1023.0 1022.5 0.0
25/07:30am 16.8 12.1 7.7 55 4.6 SSE 22 30 12 16 1022.9 1022.4 0.0
25/07:00am 16.7 12.3 7.6 55 4.6 SSE 20 26 11 14 1022.5 1022.0 0.0
25/06:30am 16.9 12.6 7.8 55 4.6 SSE 20 28 11 15 1022.2 1021.7 0.0
25/06:00am 17.0 12.3 7.9 55 4.6 SSE 22 30 12 16 1022.0 1021.5 0.0
25/05:30am 16.9 12.6 7.8 55 4.6 SSE 20 28 11 15 1021.8 1021.3 0.0
25/05:00am 17.0 12.3 7.6 54 4.8 SSE 22 28 12 15 1021.7 1021.2 0.0
25/04:30am 17.1 12.0 7.7 54 4.8 SSE 24 32 13 17 1021.5 1021.0 0.0
25/04:00am 17.6 12.2 7.9 53 5.0 SSE 26 35 14 19 1021.4 1020.9 0.0
25/03:30am 17.7 12.7 8.0 53 5.0 SSE 24 32 13 17 1021.4 1020.9 0.0
25/03:00am 17.7 13.0 9.1 57 4.5 SSE 24 30 13 16 1021.4 1020.9 0.0
25/02:30am 17.5 13.9 9.7 60 4.1 SSE 19 26 10 14 1021.4 1020.9 0.0
25/02:00am 16.7 14.7 10.1 65 3.5 S 11 15 6 8 1021.8 1021.3 0.0
25/01:30am 17.4 14.9 9.8 61 4.0 SSE 13 15 7 8 1021.9 1021.4 0.0
25/01:00am 17.6 15.1 9.8 60 4.1 SSE 13 17 7 9 1022.0 1021.5 0.0
25/12:30am 18.1 14.9 10.0 59 4.3 SSE 17 24 9 13 1022.2 1021.7 0.0
25/12:00am 18.3 15.4 9.6 57 4.6 SSE 15 20 8 11 1022.4 1021.9 0.0
 
Date/Time
EST
Temp
°C
App
Temp
°C
Dew
Point
°C
Rel
Hum
%
Delta-T
°C
Wind Press
QNH
hPa
Press
MSL
hPa
Rain since
9am
mm
Dir  Spd
km/h
Gust
km/h
Spd
kts
Gust
kts
24/11:30pm 18.6 15.0 9.9 57 4.7 SSE 19 24 10 13 1022.6 1022.1 0.0
24/11:00pm 18.6 15.1 10.2 58 4.5 SSE 19 26 10 14 1022.6 1022.1 0.0
24/10:30pm 18.9 15.5 10.7 59 4.5 SSE 19 24 10 13 1022.7 1022.2 0.0
24/10:00pm 19.1 15.7 11.4 61 4.2 SSE 20 26 11 14 1022.7 1022.2 0.0
24/09:30pm 19.4 16.7 11.7 61 4.3 SSE 17 22 9 12 1022.5 1022.0 0.0
24/09:00pm 19.4 16.9 12.2 63 4.0 SSE 17 20 9 11 1022.3 1021.8 0.0
24/08:30pm 19.8 17.0 12.6 63 4.1 SSE 19 22 10 12 1022.4 1021.9 0.0
24/08:00pm 20.1 17.5 13.1 64 4.0 SSE 19 26 10 14 1022.4 1021.9 0.0
24/07:30pm 20.8 17.7 12.2 58 4.9 SSE 20 26 11 14 1022.3 1021.8 0.0
24/07:00pm 21.2 18.5 12.9 59 4.7 SSE 19 24 10 13 1022.1 1021.6 0.0
24/06:30pm 21.7 19.4 14.1 62 4.5 SSE 19 24 10 13 1021.8 1021.3 0.0
24/06:00pm 22.2 19.2 13.8 59 4.9 SSE 22 28 12 15 1021.6 1021.1 0.0
24/05:30pm 22.7 20.5 14.5 60 4.9 SSE 19 24 10 13 1021.3 1020.8 0.0
24/05:00pm 22.7 19.9 14.3 59 5.0 SSE 22 28 12 15 1021.2 1020.7 0.0
24/04:30pm 23.2 21.2 13.9 56 5.5 SSE 17 22 9 12 1021.1 1020.6 0.0
24/04:00pm 23.2 20.8 13.7 55 5.6 SSE 19 26 10 14 1021.0 1020.5 0.0
24/03:30pm 23.6 21.8 13.2 52 6.1 SE 15 22 8 12 1021.0 1020.5 0.0
24/03:00pm 23.4 22.0 13.3 53 5.9 SSE 13 20 7 11 1021.1 1020.6 0.0
24/02:30pm 23.7 21.5 13.3 52 6.1 SSE 17 24 9 13 1021.2 1020.7 0.0
24/02:00pm 23.3 21.5 13.2 53 5.9 SE 15 24 8 13 1021.5 1021.0 0.0
24/01:30pm 22.9 20.5 12.5 52 6.0 SE 17 24 9 13 1021.8 1021.3 0.0
24/01:00pm 22.9 21.4 13.1 54 5.7 SE 13 20 7 11 1022.1 1021.6 0.0
24/12:30pm 21.9 19.4 13.5 59 4.9 ESE 19 26 10 14 1022.6 1022.1 0.0
24/12:00pm 21.6 19.4 13.2 59 4.8 ESE 17 22 9 12 1023.0 1022.5 0.0
24/11:30am 21.7 19.2 13.6 60 4.7 SE 19 26 10 14 1023.4 1022.9 0.0
24/11:00am 20.6 18.2 12.8 61 4.4 SE 17 24 9 13 1023.5 1023.0 0.0
24/10:30am 20.0 17.8 13.2 65 3.9 ESE 17 24 9 13 1023.8 1023.3 0.0
24/10:00am 19.0 16.5 12.3 65 3.7 SE 17 22 9 12 1023.9 1023.4 0.0
24/09:30am 18.9 17.0 12.9 68 3.4 SE 15 17 8 9 1023.8 1023.3 0.0
24/09:00am 18.1 16.7 13.4 74 2.7 ESE 13 20 7 11 1023.9 1023.4 0.0
24/08:30am 17.9 16.8 13.0 73 2.8 ESE 11 17 6 9 1023.5 1023.0 0.0
24/08:00am 17.5 15.8 12.4 72 2.8 S 13 17 7 9 1023.2 1022.7 0.0
24/07:30am 17.0 15.3 12.5 75 2.5 SSE 13 17 7 9 1022.8 1022.3 0.0
24/07:00am 16.7 15.5 12.7 77 2.2 SSE 11 13 6 7 1022.6 1022.1 0.0
24/06:30am 16.8 15.2 12.9 78 2.2 SSE 13 15 7 8 1022.6 1022.1 0.0
24/06:00am 17.0 14.4 13.1 78 2.2 SSE 19 24 10 13 1022.4 1021.9 0.0
24/05:30am 17.3 15.3 13.8 80 2.0 SSE 17 22 9 12 1022.2 1021.7 0.0
24/05:00am 17.0 16.7 13.3 79 2.1 SSE 7 11 4 6 1022.1 1021.6 0.0
24/04:30am 17.1 15.6 13.2 78 2.2 SSE 13 17 7 9 1021.9 1021.4 0.0
24/04:00am 17.3 15.5 13.2 77 2.3 SE 15 19 8 10 1021.9 1021.4 0.0
24/03:30am 17.2 15.3 13.1 77 2.3 SE 15 20 8 11 1021.9 1021.4 0.0
24/03:00am 17.4 15.2 13.3 77 2.3 SSE 17 20 9 11 1022.0 1021.5 0.0
24/02:30am 17.3 15.1 13.2 77 2.3 SSE 17 22 9 12 1021.8 1021.3 0.0
24/02:00am 17.0 14.8 13.3 79 2.1 SSE 17 24 9 13 1022.0 1021.5 0.0
24/01:30am 16.6 14.3 13.1 80 2.0 SSE 17 24 9 13 1022.2 1021.7 0.0
24/01:00am 16.7 14.9 13.2 80 2.0 SSE 15 20 8 11 1022.2 1021.7 0.0
24/12:30am 17.0 14.4 13.3 79 2.1 SSE 19 26 10 14 1022.1 1021.6 0.0
24/12:00am 17.1 14.4 13.4 79 2.1 SSE 20 26 11 14 1022.3 1021.8 0.0
 
Date/Time
EST
Temp
°C
App
Temp
°C
Dew
Point
°C
Rel
Hum
%
Delta-T
°C
Wind Press
QNH
hPa
Press
MSL
hPa
Rain since
9am
mm
Dir  Spd
km/h
Gust
km/h
Spd
kts
Gust
kts
23/11:30pm 17.4 14.6 13.3 77 2.3 SSE 20 26 11 14 1022.8 1022.3 0.0
23/11:00pm 17.5 14.8 13.4 77 2.3 SSE 20 30 11 16 1023.0 1022.5 0.0
23/10:30pm 17.7 14.9 13.2 75 2.6 SSE 20 26 11 14 1023.2 1022.7 0.0
23/10:00pm 17.9 15.3 13.2 74 2.7 SSE 19 26 10 14 1023.4 1022.9 0.0
23/09:30pm 17.9 15.3 13.2 74 2.7 SSE 19 28 10 15 1023.4 1022.9 0.0
23/09:00pm 17.8 15.1 12.9 73 2.8 SSE 19 26 10 14 1023.5 1023.0 0.0
23/08:30pm 18.1 14.2 13.2 73 2.8 SSE 26 35 14 19 1023.6 1023.1 0.0
23/08:00pm 18.4 14.5 13.3 72 2.9 SSE 26 32 14 17 1023.5 1023.0 0.0
23/07:30pm 19.0 15.4 13.2 69 3.3 SSE 24 32 13 17 1023.2 1022.7 0.0
23/07:00pm 19.7 15.7 11.7 60 4.4 SSE 24 33 13 18 1022.9 1022.4 0.0
23/06:30pm 20.5 16.9 12.0 58 4.8 SE 22 28 12 15 1022.6 1022.1 0.0
23/06:00pm 20.7 17.1 12.9 61 4.4 SE 24 35 13 19 1022.5 1022.0 0.0
23/05:30pm 21.4 17.2 12.5 57 5.1 SE 26 32 14 17 1022.1 1021.6 0.0
23/05:00pm 21.5 17.8 12.6 57 5.1 SSE 24 35 13 19 1022.0 1021.5 0.0
23/04:30pm 21.9 18.4 13.5 59 4.9 SE 24 32 13 17 1022.0 1021.5 0.0
23/04:00pm 22.3 18.8 13.4 57 5.2 SE 24 32 13 17 1021.7 1021.2 0.0
23/03:30pm 22.1 19.1 13.7 59 4.9 SE 22 30 12 16 1021.5 1021.0 0.0
23/03:00pm 22.5 19.8 13.6 57 5.2 SSE 20 26 11 14 1021.3 1020.8 0.0
23/02:30pm 21.8 19.0 13.2 58 5.0 SE 20 28 11 15 1021.4 1020.9 0.0
23/02:00pm 21.9 19.1 13.3 58 5.0 SSE 20 28 11 15 1021.9 1021.4 0.0
23/01:30pm 21.0 18.7 12.9 60 4.6 SSE 17 24 9 13 1022.2 1021.7 0.0
23/01:00pm 20.0 17.5 12.3 61 4.3 SSE 17 22 9 12 1022.7 1022.2 0.0
23/12:30pm 19.3 16.1 11.1 59 4.5 SSE 19 28 10 15 1023.4 1022.9 0.0
23/12:00pm 19.2 15.8 11.3 60 4.3 SSE 20 26 11 14 1023.9 1023.4 0.0
23/11:30am 18.5 15.1 11.1 62 4.1 SSE 20 26 11 14 1024.2 1023.7 0.0
23/11:00am 18.4 15.0 11.2 63 3.9 SSE 20 28 11 15 1024.4 1023.9 0.0
23/10:30am 18.6 15.7 12.8 69 3.3 SSE 20 30 11 16 1024.5 1024.0 0.0
23/10:00am 18.5 14.6 9.3 55 4.8 SSE 20 26 11 14 1024.5 1024.0 0.0
23/09:30am 17.7 13.2 8.6 55 4.7 SSE 22 28 12 15 1024.5 1024.0 0.0
23/09:00am 17.1 13.5 8.3 56 4.5 SSE 17 22 9 12 1024.4 1023.9 0.2
23/08:30am 16.4 12.2 7.6 56 4.4 SSE 19 22 10 12 1024.2 1023.7 0.2
23/08:00am 16.2 13.2 7.9 58 4.2 SSE 13 17 7 9 1024.0 1023.5 0.2
23/07:30am 16.1 12.7 7.6 57 4.3 S 15 20 8 11 1023.7 1023.2 0.2
23/07:00am 16.0 11.9 7.7 58 4.2 S 19 24 10 13 1023.5 1023.0 0.2
23/06:30am 16.0 12.0 8.2 60 4.0 S 19 24 10 13 1023.3 1022.8 0.2
23/06:00am 16.1 12.4 9.3 64 3.5 S 19 24 10 13 1023.2 1022.7 0.2

Other formats

Comma delimited format used in spreadsheet applications
http://www.bom.gov.au/fwo/IDN60801/IDN60801.94686.axf

JavaScript Object Notation format (JSON) in row-major order
http://www.bom.gov.au/fwo/IDN60801/IDN60801.94686.json

Data quality

Most of these data are generated automatically and are frequently updated. Quality checks on data are not normally performed. It is possible for incorrect values to appear. Refer to information at About Latest Weather Observations and please check the disclaimer before using these data.